Udo Maru — JM6522 — position and weather

sailwx.info

Track history (hours):
 
Tides and Currents Weather Stations Pressure Air Temp Water Temp Dewpoint Dewpoint Depression Visibility Wind Speed Wind Dir Waves Ship Positions

Udo Maru

Last reported at 2016-Feb-12 08:33 UTC. Time now 2016-Feb-12 16:12 UTC.
Position N 34°38' E 134°59'.

Length 87 m; draft 4.9 m.

Type: Cargo ship. MMSI: 431600499.

Date/timePositionNaut miles runAvg speedWind from/ knotsBaromVisibWave heightAir tempDewpointWater temp
2016-Feb-12 08:33N 34°38' E 134°59'10 9.6
2016-Feb-12 07:33N 34°35' E 135°10'1211.7
2016-Feb-12 06:33N 34°31' E 135°23'0 0.5
2016-Feb-12 05:31N 34°31' E 135°24'0 0.0
2016-Feb-12 04:29N 34°31' E 135°24'0 0.0
2016-Feb-12 02:31N 34°31' E 135°24'0 0.0
2016-Feb-11 23:32N 34°31' E 135°24'1 0.9
2016-Feb-11 22:33N 34°31' E 135°23'9 8.6
2016-Feb-11 21:33N 34°34' E 135°13'9 8.9
2016-Feb-11 20:33N 34°36' E 135°03'  
2016-Feb-09 09:27N 34°35' E 134°51'1010.8
2016-Feb-09 08:33N 34°37' E 135°03'1111.4
2016-Feb-09 07:33N 34°37' E 135°17'9 4.3
2016-Feb-09 05:27N 34°40' E 135°27'0 0.0
2016-Feb-09 04:23N 34°40' E 135°27'0 0.0
2016-Feb-09 03:33N 34°40' E 135°27'0 0.0
2016-Feb-09 00:33N 34°40' E 135°27'0 0.0
2016-Feb-08 23:32N 34°40' E 135°27'0 0.0
2016-Feb-08 22:33N 34°40' E 135°27'0 0.0
2016-Feb-08 19:32N 34°40' E 135°27'0 0.0
2016-Feb-08 18:33N 34°40' E 135°27'0 0.0
2016-Feb-08 16:21N 34°40' E 135°27'0 0.0
2016-Feb-08 15:17N 34°40' E 135°27'0 0.0
2016-Feb-08 14:33N 34°40' E 135°27'0 0.0
2016-Feb-08 13:30N 34°40' E 135°27'0 0.0
2016-Feb-08 12:32N 34°40' E 135°27'0 0.0
2016-Feb-08 11:33N 34°40' E 135°27'0 0.0
2016-Feb-08 10:33N 34°40' E 135°27'0 0.0
2016-Feb-08 09:32N 34°40' E 135°27'0 0.0
2016-Feb-08 08:31N 34°40' E 135°27'0 0.0
2016-Feb-08 06:18N 34°40' E 135°27'0 0.6
2016-Feb-08 05:33N 34°40' E 135°27'4 0.4
2016-Feb-07 19:28N 34°35' E 135°27'6 6.0
2016-Feb-07 18:32N 34°36' E 135°21'1111.5
2016-Feb-07 17:33N 34°35' E 135°07'1413.6
2016-Feb-07 16:30N 34°39' E 134°50'4 0.3
2016-Feb-07 02:04N 34°37' E 134°54'611.7
2016-Feb-07 01:32N 34°37' E 135°02'10 9.7
2016-Feb-07 00:33N 34°27' E 135°03'1211.4
2016-Feb-06 23:32N 34°16' E 134°59'1111.0
2016-Feb-06 22:33N 34°06' E 135°00'242 8.9
2016-Feb-05 19:29N 35°09' E 139°44'910.2
2016-Feb-05 18:33N 35°19' E 139°43'7 6.6
2016-Feb-05 17:33N 35°24' E 139°48'4 1.8
2016-Feb-05 15:22N 35°21' E 139°51'0 0.0
2016-Feb-05 11:28N 35°21' E 139°51'0 0.0
2016-Feb-05 10:07N 35°21' E 139°51'0 0.0
2016-Feb-05 07:10N 35°21' E 139°51'0 0.0
2016-Feb-04 20:09N 35°21' E 139°51'0 0.1
2016-Feb-04 19:15N 35°21' E 139°51'0 0.0
2016-Feb-03 23:26N 35°21' E 139°51'0 0.1
2016-Feb-03 22:32N 35°21' E 139°51'2 2.4
2016-Feb-03 21:32N 35°22' E 139°49'0 0.0
2016-Feb-03 20:32N 35°22' E 139°49'0 0.0
2016-Feb-03 19:32N 35°22' E 139°49'0 0.0
2016-Feb-03 18:32N 35°22' E 139°49'0 0.0
2016-Feb-03 17:32N 35°22' E 139°49'0 0.0
2016-Feb-03 16:32N 35°22' E 139°49'0 0.0
2016-Feb-03 15:32N 35°22' E 139°49'0 0.0
2016-Feb-03 14:32N 35°22' E 139°49'0 0.0
2016-Feb-03 13:32N 35°22' E 139°49'0 0.0
2016-Feb-03 12:32N 35°22' E 139°49'0 0.0
2016-Feb-03 11:32N 35°22' E 139°49'0 0.0
2016-Feb-03 10:32N 35°22' E 139°49'0 0.0
2016-Feb-03 09:32N 35°22' E 139°49'0 0.0
2016-Feb-03 08:32N 35°22' E 139°49'4 3.8
2016-Feb-03 07:33N 35°24' E 139°45'0 0.0
2016-Feb-03 06:33N 35°24' E 139°45'6 6.1
2016-Feb-03 05:32N 35°29' E 139°39'0 0.0
2016-Feb-03 04:32N 35°29' E 139°39'0 0.0
2016-Feb-03 03:32N 35°29' E 139°39'0 0.0
2016-Feb-03 02:32N 35°29' E 139°39'0 0.0
2016-Feb-03 01:29N 35°29' E 139°39'0 0.1
2016-Feb-03 00:32N 35°29' E 139°39'0 0.0
2016-Feb-02 23:32N 35°29' E 139°39'3 3.3
2016-Feb-02 22:33N 35°26' E 139°42'4 4.5
2016-Feb-02 21:33N 35°22' E 139°44'0 0.0
2016-Feb-02 20:33N 35°22' E 139°44'0 0.0
2016-Feb-02 19:33N 35°22' E 139°44'0 0.0
2016-Feb-02 18:33N 35°22' E 139°44'0 0.0
2016-Feb-02 17:33N 35°22' E 139°44'0 0.0
2016-Feb-02 16:33N 35°22' E 139°44'0 0.0
2016-Feb-02 15:33N 35°22' E 139°44'0 0.0
2016-Feb-02 14:33N 35°22' E 139°44'0 0.0
2016-Feb-02 13:33N 35°22' E 139°44'0 0.0
2016-Feb-02 12:33N 35°22' E 139°44'5 4.7
2016-Feb-02 11:34N 35°18' E 139°45'1010.2
2016-Feb-02 10:32N 35°07' E 139°45'  
Track history (hours):
 
Tides and Currents Weather Stations Pressure Air Temp Water Temp Dewpoint Dewpoint Depression Visibility Wind Speed Wind Dir Waves Ship Positions

Udo Maru

Last reported at 2016-Feb-12 08:33 UTC. Time now 2016-Feb-12 16:12 UTC.
Position N 34°38' E 134°59'.

Length 87 m; draft 4.9 m.

Type: Cargo ship. MMSI: 431600499.

Date/timePositionNaut miles runAvg speedWind from/ knotsBaromVisibWave heightAir tempDewpointWater temp
2016-Feb-12 08:33N 34°38' E 134°59'10 9.6
2016-Feb-12 07:33N 34°35' E 135°10'1211.7
2016-Feb-12 06:33N 34°31' E 135°23'0 0.5
2016-Feb-12 05:31N 34°31' E 135°24'0 0.0
2016-Feb-12 04:29N 34°31' E 135°24'0 0.0
2016-Feb-12 02:31N 34°31' E 135°24'0 0.0
2016-Feb-11 23:32N 34°31' E 135°24'1 0.9
2016-Feb-11 22:33N 34°31' E 135°23'9 8.6
2016-Feb-11 21:33N 34°34' E 135°13'9 8.9
2016-Feb-11 20:33N 34°36' E 135°03'  
2016-Feb-09 09:27N 34°35' E 134°51'1010.8
2016-Feb-09 08:33N 34°37' E 135°03'1111.4
2016-Feb-09 07:33N 34°37' E 135°17'9 4.3
2016-Feb-09 05:27N 34°40' E 135°27'0 0.0
2016-Feb-09 04:23N 34°40' E 135°27'0 0.0
2016-Feb-09 03:33N 34°40' E 135°27'0 0.0
2016-Feb-09 00:33N 34°40' E 135°27'0 0.0
2016-Feb-08 23:32N 34°40' E 135°27'0 0.0
2016-Feb-08 22:33N 34°40' E 135°27'0 0.0
2016-Feb-08 19:32N 34°40' E 135°27'0 0.0
2016-Feb-08 18:33N 34°40' E 135°27'0 0.0
2016-Feb-08 16:21N 34°40' E 135°27'0 0.0
2016-Feb-08 15:17N 34°40' E 135°27'0 0.0
2016-Feb-08 14:33N 34°40' E 135°27'0 0.0
2016-Feb-08 13:30N 34°40' E 135°27'0 0.0
2016-Feb-08 12:32N 34°40' E 135°27'0 0.0
2016-Feb-08 11:33N 34°40' E 135°27'0 0.0
2016-Feb-08 10:33N 34°40' E 135°27'0 0.0
2016-Feb-08 09:32N 34°40' E 135°27'0 0.0
2016-Feb-08 08:31N 34°40' E 135°27'0 0.0
2016-Feb-08 06:18N 34°40' E 135°27'0 0.6
2016-Feb-08 05:33N 34°40' E 135°27'4 0.4
2016-Feb-07 19:28N 34°35' E 135°27'6 6.0
2016-Feb-07 18:32N 34°36' E 135°21'1111.5
2016-Feb-07 17:33N 34°35' E 135°07'1413.6
2016-Feb-07 16:30N 34°39' E 134°50'4 0.3
2016-Feb-07 02:04N 34°37' E 134°54'611.7
2016-Feb-07 01:32N 34°37' E 135°02'10 9.7
2016-Feb-07 00:33N 34°27' E 135°03'1211.4
2016-Feb-06 23:32N 34°16' E 134°59'1111.0
2016-Feb-06 22:33N 34°06' E 135°00'242 8.9
2016-Feb-05 19:29N 35°09' E 139°44'910.2
2016-Feb-05 18:33N 35°19' E 139°43'7 6.6
2016-Feb-05 17:33N 35°24' E 139°48'4 1.8
2016-Feb-05 15:22N 35°21' E 139°51'0 0.0
2016-Feb-05 11:28N 35°21' E 139°51'0 0.0
2016-Feb-05 10:07N 35°21' E 139°51'0 0.0
2016-Feb-05 07:10N 35°21' E 139°51'0 0.0
2016-Feb-04 20:09N 35°21' E 139°51'0 0.1
2016-Feb-04 19:15N 35°21' E 139°51'0 0.0
2016-Feb-03 23:26N 35°21' E 139°51'0 0.1
2016-Feb-03 22:32N 35°21' E 139°51'2 2.4
2016-Feb-03 21:32N 35°22' E 139°49'0 0.0
2016-Feb-03 20:32N 35°22' E 139°49'0 0.0
2016-Feb-03 19:32N 35°22' E 139°49'0 0.0
2016-Feb-03 18:32N 35°22' E 139°49'0 0.0
2016-Feb-03 17:32N 35°22' E 139°49'0 0.0
2016-Feb-03 16:32N 35°22' E 139°49'0 0.0
2016-Feb-03 15:32N 35°22' E 139°49'0 0.0
2016-Feb-03 14:32N 35°22' E 139°49'0 0.0
2016-Feb-03 13:32N 35°22' E 139°49'0 0.0
2016-Feb-03 12:32N 35°22' E 139°49'0 0.0
2016-Feb-03 11:32N 35°22' E 139°49'0 0.0
2016-Feb-03 10:32N 35°22' E 139°49'0 0.0
2016-Feb-03 09:32N 35°22' E 139°49'0 0.0
2016-Feb-03 08:32N 35°22' E 139°49'4 3.8
2016-Feb-03 07:33N 35°24' E 139°45'0 0.0
2016-Feb-03 06:33N 35°24' E 139°45'6 6.1
2016-Feb-03 05:32N 35°29' E 139°39'0 0.0
2016-Feb-03 04:32N 35°29' E 139°39'0 0.0
2016-Feb-03 03:32N 35°29' E 139°39'0 0.0
2016-Feb-03 02:32N 35°29' E 139°39'0 0.0
2016-Feb-03 01:29N 35°29' E 139°39'0 0.1
2016-Feb-03 00:32N 35°29' E 139°39'0 0.0
2016-Feb-02 23:32N 35°29' E 139°39'3 3.3
2016-Feb-02 22:33N 35°26' E 139°42'4 4.5
2016-Feb-02 21:33N 35°22' E 139°44'0 0.0
2016-Feb-02 20:33N 35°22' E 139°44'0 0.0
2016-Feb-02 19:33N 35°22' E 139°44'0 0.0
2016-Feb-02 18:33N 35°22' E 139°44'0 0.0
2016-Feb-02 17:33N 35°22' E 139°44'0 0.0
2016-Feb-02 16:33N 35°22' E 139°44'0 0.0
2016-Feb-02 15:33N 35°22' E 139°44'0 0.0
2016-Feb-02 14:33N 35°22' E 139°44'0 0.0
2016-Feb-02 13:33N 35°22' E 139°44'0 0.0
2016-Feb-02 12:33N 35°22' E 139°44'5 4.7
2016-Feb-02 11:34N 35°18' E 139°45'1010.2
2016-Feb-02 10:32N 35°07' E 139°45'  

Dump ship's entire track history